sensor_id;sensor_type;location;lat;lon;timestamp;pressure;altitude;pressure_sealevel;temperature;humidity
73151;BME280;61354;50.758;6.106;2022-11-21T00:00:41;98237.97;;;5.32;96.76
73151;BME280;61354;50.758;6.106;2022-11-21T00:03:08;98242.69;;;5.31;97.20
73151;BME280;61354;50.758;6.106;2022-11-21T00:05:37;98236.34;;;5.31;97.08
73151;BME280;61354;50.758;6.106;2022-11-21T00:08:04;98241.28;;;5.37;96.00
73151;BME280;61354;50.758;6.106;2022-11-21T00:10:29;98230.75;;;5.27;96.74
73151;BME280;61354;50.758;6.106;2022-11-21T00:12:56;98234.75;;;5.30;97.11
73151;BME280;61354;50.758;6.106;2022-11-21T00:15:23;98229.72;;;5.32;96.87
73151;BME280;61354;50.758;6.106;2022-11-21T00:17:49;98230.06;;;5.30;96.51
73151;BME280;61354;50.758;6.106;2022-11-21T00:20:16;98233.16;;;5.29;96.52
73151;BME280;61354;50.758;6.106;2022-11-21T00:22:42;98228.34;;;5.26;97.31
73151;BME280;61354;50.758;6.106;2022-11-21T00:25:08;98241.53;;;5.20;97.35
73151;BME280;61354;50.758;6.106;2022-11-21T00:27:33;98222.38;;;5.23;96.52
73151;BME280;61354;50.758;6.106;2022-11-21T00:29:59;98225.81;;;5.20;96.85
73151;BME280;61354;50.758;6.106;2022-11-21T00:32:24;98225.13;;;5.23;96.26
73151;BME280;61354;50.758;6.106;2022-11-21T00:34:49;98226.50;;;5.17;96.82
73151;BME280;61354;50.758;6.106;2022-11-21T00:37:15;98234.75;;;5.17;97.13
73151;BME280;61354;50.758;6.106;2022-11-21T00:39:40;98225.25;;;5.27;96.19
73151;BME280;61354;50.758;6.106;2022-11-21T00:42:06;98224.44;;;5.27;96.65
73151;BME280;61354;50.758;6.106;2022-11-21T00:44:31;98222.38;;;5.23;97.12
73151;BME280;61354;50.758;6.106;2022-11-21T00:46:57;98213.34;;;5.23;97.56
73151;BME280;61354;50.758;6.106;2022-11-21T00:49:22;98212.75;;;5.17;98.11
73151;BME280;61354;50.758;6.106;2022-11-21T00:51:47;98208.50;;;5.20;97.34
73151;BME280;61354;50.758;6.106;2022-11-21T00:54:13;98210.00;;;5.17;98.63
73151;BME280;61354;50.758;6.106;2022-11-21T00:56:38;98210.91;;;5.21;97.39
73151;BME280;61354;50.758;6.106;2022-11-21T00:59:04;98226.38;;;5.14;97.72
73151;BME280;61354;50.758;6.106;2022-11-21T01:01:29;98229.97;;;5.14;97.91
73151;BME280;61354;50.758;6.106;2022-11-21T01:03:57;98236.72;;;5.17;97.39
73151;BME280;61354;50.758;6.106;2022-11-21T01:06:22;98234.75;;;5.17;97.98
73151;BME280;61354;50.758;6.106;2022-11-21T01:08:47;98224.91;;;5.16;98.01
73151;BME280;61354;50.758;6.106;2022-11-21T01:11:16;98227.41;;;5.09;98.13
73151;BME280;61354;50.758;6.106;2022-11-21T01:13:42;98216.88;;;5.11;97.48
73151;BME280;61354;50.758;6.106;2022-11-21T01:16:11;98223.75;;;5.05;97.39
73151;BME280;61354;50.758;6.106;2022-11-21T01:18:36;98220.19;;;5.05;97.70
73151;BME280;61354;50.758;6.106;2022-11-21T01:21:04;98220.31;;;4.96;97.09
73151;BME280;61354;50.758;6.106;2022-11-21T01:23:30;98221.91;;;4.97;97.24
73151;BME280;61354;50.758;6.106;2022-11-21T01:26:00;98217.56;;;4.96;96.75
73151;BME280;61354;50.758;6.106;2022-11-21T01:28:26;98222.16;;;4.92;96.66
73151;BME280;61354;50.758;6.106;2022-11-21T01:30:52;98228.81;;;4.91;96.79
73151;BME280;61354;50.758;6.106;2022-11-21T01:33:17;98226.03;;;4.79;97.24
73151;BME280;61354;50.758;6.106;2022-11-21T01:35:43;98219.84;;;4.82;96.97
73151;BME280;61354;50.758;6.106;2022-11-21T01:38:08;98223.06;;;4.84;96.31
73151;BME280;61354;50.758;6.106;2022-11-21T01:40:38;98217.56;;;4.84;96.54
73151;BME280;61354;50.758;6.106;2022-11-21T01:43:14;98221.59;;;4.86;95.51
73151;BME280;61354;50.758;6.106;2022-11-21T01:48:25;98215.16;;;4.82;96.65
73151;BME280;61354;50.758;6.106;2022-11-21T01:50:53;98206.78;;;4.79;96.93
73151;BME280;61354;50.758;6.106;2022-11-21T01:53:20;98211.94;;;4.80;96.85
73151;BME280;61354;50.758;6.106;2022-11-21T01:55:47;98208.38;;;4.80;96.86
73151;BME280;61354;50.758;6.106;2022-11-21T01:58:13;98218.94;;;4.78;97.08
73151;BME280;61354;50.758;6.106;2022-11-21T02:00:39;98213.44;;;4.78;97.22
73151;BME280;61354;50.758;6.106;2022-11-21T02:03:09;98200.94;;;4.80;97.43
73151;BME280;61354;50.758;6.106;2022-11-21T02:05:37;98206.09;;;4.82;97.45
73151;BME280;61354;50.758;6.106;2022-11-21T02:08:18;98214.25;;;4.78;97.33
73151;BME280;61354;50.758;6.106;2022-11-21T02:13:51;98216.88;;;4.87;97.39
73151;BME280;61354;50.758;6.106;2022-11-21T02:16:17;98211.03;;;4.88;97.85
73151;BME280;61354;50.758;6.106;2022-11-21T02:18:42;98201.97;;;4.88;97.80
73151;BME280;61354;50.758;6.106;2022-11-21T02:21:32;98205.19;;;4.90;97.73
73151;BME280;61354;50.758;6.106;2022-11-21T02:24:07;98206.78;;;4.91;97.93
73151;BME280;61354;50.758;6.106;2022-11-21T02:26:36;98206.00;;;4.90;97.95
73151;BME280;61354;50.758;6.106;2022-11-21T02:29:02;98204.84;;;4.91;98.11
73151;BME280;61354;50.758;6.106;2022-11-21T02:31:27;98206.56;;;4.96;98.45
73151;BME280;61354;50.758;6.106;2022-11-21T02:33:53;98200.63;;;4.94;98.36
73151;BME280;61354;50.758;6.106;2022-11-21T02:39:05;98199.91;;;4.97;99.15
73151;BME280;61354;50.758;6.106;2022-11-21T02:41:32;98193.72;;;5.00;98.71
73151;BME280;61354;50.758;6.106;2022-11-21T02:44:09;98204.84;;;5.04;99.40
73151;BME280;61354;50.758;6.106;2022-11-21T02:46:45;98202.44;;;5.02;99.43
73151;BME280;61354;50.758;6.106;2022-11-21T02:49:12;98201.75;;;5.05;99.74
73151;BME280;61354;50.758;6.106;2022-11-21T02:51:38;98206.13;;;5.06;99.74
73151;BME280;61354;50.758;6.106;2022-11-21T02:54:03;98206.56;;;5.08;99.68
73151;BME280;61354;50.758;6.106;2022-11-21T02:56:28;98214.56;;;5.13;99.85
73151;BME280;61354;50.758;6.106;2022-11-21T02:58:54;98207.59;;;5.16;99.58
73151;BME280;61354;50.758;6.106;2022-11-21T03:01:19;98213.22;;;5.19;99.72
73151;BME280;61354;50.758;6.106;2022-11-21T03:03:45;98223.06;;;5.20;99.73
73151;BME280;61354;50.758;6.106;2022-11-21T03:06:10;98209.31;;;5.20;100.00
73151;BME280;61354;50.758;6.106;2022-11-21T03:08:35;98201.53;;;5.22;100.00
73151;BME280;61354;50.758;6.106;2022-11-21T03:11:01;98204.84;;;5.28;100.00
73151;BME280;61354;50.758;6.106;2022-11-21T03:13:26;98193.03;;;5.28;100.00
73151;BME280;61354;50.758;6.106;2022-11-21T03:15:52;98199.66;;;5.27;100.00
73151;BME280;61354;50.758;6.106;2022-11-21T03:18:19;98196.22;;;5.30;100.00
73151;BME280;61354;50.758;6.106;2022-11-21T03:20:45;98196.47;;;5.24;100.00
73151;BME280;61354;50.758;6.106;2022-11-21T03:23:10;98191.06;;;5.28;100.00
73151;BME280;61354;50.758;6.106;2022-11-21T03:25:35;98185.22;;;5.30;100.00
73151;BME280;61354;50.758;6.106;2022-11-21T03:28:01;98180.50;;;5.30;100.00
73151;BME280;61354;50.758;6.106;2022-11-21T03:30:27;98201.72;;;5.30;100.00
73151;BME280;61354;50.758;6.106;2022-11-21T03:32:56;98208.81;;;5.31;100.00
73151;BME280;61354;50.758;6.106;2022-11-21T03:35:22;98211.38;;;5.23;100.00
73151;BME280;61354;50.758;6.106;2022-11-21T03:37:47;98220.31;;;5.20;100.00
73151;BME280;61354;50.758;6.106;2022-11-21T03:40:13;98207.81;;;5.23;100.00
73151;BME280;61354;50.758;6.106;2022-11-21T03:42:38;98193.94;;;5.19;100.00
73151;BME280;61354;50.758;6.106;2022-11-21T03:45:04;98187.06;;;5.13;100.00
73151;BME280;61354;50.758;6.106;2022-11-21T03:47:30;98184.09;;;5.18;100.00
73151;BME280;61354;50.758;6.106;2022-11-21T03:49:55;98179.28;;;5.15;100.00
73151;BME280;61354;50.758;6.106;2022-11-21T03:52:21;98172.19;;;5.14;100.00
73151;BME280;61354;50.758;6.106;2022-11-21T03:54:46;98176.06;;;5.13;100.00
73151;BME280;61354;50.758;6.106;2022-11-21T03:57:12;98176.78;;;5.10;100.00
73151;BME280;61354;50.758;6.106;2022-11-21T03:59:37;98166.66;;;5.14;100.00
73151;BME280;61354;50.758;6.106;2022-11-21T04:02:03;98173.53;;;5.08;100.00
73151;BME280;61354;50.758;6.106;2022-11-21T04:04:28;98173.53;;;5.08;100.00
73151;BME280;61354;50.758;6.106;2022-11-21T04:06:53;98192.38;;;5.06;100.00
73151;BME280;61354;50.758;6.106;2022-11-21T04:09:19;98181.34;;;5.06;100.00
73151;BME280;61354;50.758;6.106;2022-11-21T04:11:44;98185.94;;;5.02;100.00
73151;BME280;61354;50.758;6.106;2022-11-21T04:14:10;98189.69;;;4.97;100.00
73151;BME280;61354;50.758;6.106;2022-11-21T04:16:35;98198.66;;;4.94;100.00
73151;BME280;61354;50.758;6.106;2022-11-21T04:19:01;98207.84;;;4.98;100.00
73151;BME280;61354;50.758;6.106;2022-11-21T04:21:26;98202.53;;;4.93;100.00
73151;BME280;61354;50.758;6.106;2022-11-21T04:23:52;98194.75;;;4.95;100.00
73151;BME280;61354;50.758;6.106;2022-11-21T04:26:17;98191.66;;;4.97;100.00
73151;BME280;61354;50.758;6.106;2022-11-21T04:28:42;98197.16;;;4.97;100.00
73151;BME280;61354;50.758;6.106;2022-11-21T04:31:08;98192.00;;;4.95;100.00
73151;BME280;61354;50.758;6.106;2022-11-21T04:33:34;98193.38;;;5.02;100.00
73151;BME280;61354;50.758;6.106;2022-11-21T04:36:00;98199.91;;;4.97;100.00
73151;BME280;61354;50.758;6.106;2022-11-21T04:38:25;98196.94;;;5.02;100.00
73151;BME280;61354;50.758;6.106;2022-11-21T04:40:51;98186.16;;;4.97;100.00
73151;BME280;61354;50.758;6.106;2022-11-21T04:43:18;98187.53;;;5.03;100.00
73151;BME280;61354;50.758;6.106;2022-11-21T04:45:43;98194.53;;;5.01;100.00
73151;BME280;61354;50.758;6.106;2022-11-21T04:48:10;98201.06;;;4.96;100.00
73151;BME280;61354;50.758;6.106;2022-11-21T04:50:35;98197.94;;;4.97;100.00
73151;BME280;61354;50.758;6.106;2022-11-21T04:53:01;98201.97;;;5.00;100.00
73151;BME280;61354;50.758;6.106;2022-11-21T04:55:29;98201.41;;;4.94;100.00
73151;BME280;61354;50.758;6.106;2022-11-21T04:57:55;98204.50;;;4.93;100.00
73151;BME280;61354;50.758;6.106;2022-11-21T05:00:20;98194.19;;;4.90;100.00
73151;BME280;61354;50.758;6.106;2022-11-21T05:02:46;98205.09;;;4.98;100.00
73151;BME280;61354;50.758;6.106;2022-11-21T05:05:11;98204.28;;;4.98;100.00
73151;BME280;61354;50.758;6.106;2022-11-21T05:07:37;98205.66;;;4.92;100.00
73151;BME280;61354;50.758;6.106;2022-11-21T05:10:04;98207.03;;;4.98;100.00
73151;BME280;61354;50.758;6.106;2022-11-21T05:12:30;98198.78;;;4.86;100.00
73151;BME280;61354;50.758;6.106;2022-11-21T05:15:14;98194.19;;;4.90;100.00
73151;BME280;61354;50.758;6.106;2022-11-21T05:17:39;98191.66;;;4.97;100.00
73151;BME280;61354;50.758;6.106;2022-11-21T05:20:05;98188.22;;;5.00;100.00
73151;BME280;61354;50.758;6.106;2022-11-21T05:22:31;98190.16;;;4.87;100.00
73151;BME280;61354;50.758;6.106;2022-11-21T05:24:56;98188.91;;;4.85;100.00
73151;BME280;61354;50.758;6.106;2022-11-21T05:27:22;98182.47;;;4.93;100.00
73151;BME280;61354;50.758;6.106;2022-11-21T05:29:47;98178.81;;;4.89;100.00
73151;BME280;61354;50.758;6.106;2022-11-21T05:32:12;98184.09;;;4.94;100.00
73151;BME280;61354;50.758;6.106;2022-11-21T05:34:38;98182.28;;;4.86;100.00
73151;BME280;61354;50.758;6.106;2022-11-21T05:37:03;98181.34;;;4.94;100.00
73151;BME280;61354;50.758;6.106;2022-11-21T05:39:29;98184.09;;;4.94;100.00
73151;BME280;61354;50.758;6.106;2022-11-21T05:41:54;98179.41;;;4.94;100.00
73151;BME280;61354;50.758;6.106;2022-11-21T05:44:20;98172.75;;;4.95;100.00
73151;BME280;61354;50.758;6.106;2022-11-21T05:46:45;98171.84;;;4.91;100.00
73151;BME280;61354;50.758;6.106;2022-11-21T05:49:11;98165.66;;;4.82;100.00
73151;BME280;61354;50.758;6.106;2022-11-21T05:51:36;98157.84;;;4.84;100.00
73151;BME280;61354;50.758;6.106;2022-11-21T05:54:02;98161.06;;;4.86;100.00
73151;BME280;61354;50.758;6.106;2022-11-21T05:56:28;98164.06;;;4.81;100.00
73151;BME280;61354;50.758;6.106;2022-11-21T05:58:55;98153.72;;;4.78;100.00
73151;BME280;61354;50.758;6.106;2022-11-21T06:01:21;98153.84;;;4.82;100.00
73151;BME280;61354;50.758;6.106;2022-11-21T06:04:06;98143.16;;;4.80;100.00
73151;BME280;61354;50.758;6.106;2022-11-21T06:06:32;98145.72;;;4.85;100.00
73151;BME280;61354;50.758;6.106;2022-11-21T06:08:57;98154.66;;;4.82;100.00
73151;BME280;61354;50.758;6.106;2022-11-21T06:11:23;98153.38;;;4.80;100.00
73151;BME280;61354;50.758;6.106;2022-11-21T06:13:48;98155.56;;;4.74;100.00
73151;BME280;61354;50.758;6.106;2022-11-21T06:16:15;98149.72;;;4.76;100.00
73151;BME280;61354;50.758;6.106;2022-11-21T06:18:43;98149.81;;;4.79;100.00
73151;BME280;61354;50.758;6.106;2022-11-21T06:23:42;98147.56;;;4.81;100.00
73151;BME280;61354;50.758;6.106;2022-11-21T06:26:12;98144.44;;;4.83;100.00
73151;BME280;61354;50.758;6.106;2022-11-21T06:28:39;98142.38;;;4.80;100.00
73151;BME280;61354;50.758;6.106;2022-11-21T06:31:13;98152.34;;;4.84;100.00
73151;BME280;61354;50.758;6.106;2022-11-21T06:33:40;98151.53;;;4.84;100.00
73151;BME280;61354;50.758;6.106;2022-11-21T06:36:10;98152.47;;;4.76;100.00
73151;BME280;61354;50.758;6.106;2022-11-21T06:38:36;98156.81;;;4.77;100.00
73151;BME280;61354;50.758;6.106;2022-11-21T06:41:06;98140.53;;;4.84;100.00
73151;BME280;61354;50.758;6.106;2022-11-21T06:43:32;98143.97;;;4.81;100.00
73151;BME280;61354;50.758;6.106;2022-11-21T06:45:58;98144.69;;;4.78;100.00
73151;BME280;61354;50.758;6.106;2022-11-21T06:48:24;98142.84;;;4.69;100.00
73151;BME280;61354;50.758;6.106;2022-11-21T06:50:49;98143.53;;;4.79;100.00
73151;BME280;61354;50.758;6.106;2022-11-21T06:53:15;98153.63;;;4.74;100.00
73151;BME280;61354;50.758;6.106;2022-11-21T06:55:40;98150.19;;;4.78;100.00
73151;BME280;61354;50.758;6.106;2022-11-21T06:58:06;98145.38;;;4.87;100.00
73151;BME280;61354;50.758;6.106;2022-11-21T07:00:31;98146.03;;;4.84;100.00
73151;BME280;61354;50.758;6.106;2022-11-21T07:03:01;98140.19;;;4.97;100.00
73151;BME280;61354;50.758;6.106;2022-11-21T07:05:27;98141.47;;;4.88;100.00
73151;BME280;61354;50.758;6.106;2022-11-21T07:07:58;98141.56;;;4.91;100.00
73151;BME280;61354;50.758;6.106;2022-11-21T07:10:24;98140.88;;;4.94;100.00
73151;BME280;61354;50.758;6.106;2022-11-21T07:12:49;98137.56;;;4.89;100.00
73151;BME280;61354;50.758;6.106;2022-11-21T07:15:33;98124.94;;;4.88;100.00
73151;BME280;61354;50.758;6.106;2022-11-21T07:17:59;98120.84;;;4.94;100.00
73151;BME280;61354;50.758;6.106;2022-11-21T07:20:25;98124.28;;;4.91;100.00
73151;BME280;61354;50.758;6.106;2022-11-21T07:22:54;98129.78;;;4.91;100.00
73151;BME280;61354;50.758;6.106;2022-11-21T07:25:20;98136.19;;;4.95;100.00
73151;BME280;61354;50.758;6.106;2022-11-21T07:27:45;98127.56;;;4.96;100.00
73151;BME280;61354;50.758;6.106;2022-11-21T07:30:12;98127.47;;;4.93;100.00
73151;BME280;61354;50.758;6.106;2022-11-21T07:32:37;98125.19;;;4.95;100.00
73151;BME280;61354;50.758;6.106;2022-11-21T07:35:03;98126.09;;;4.99;100.00
73151;BME280;61354;50.758;6.106;2022-11-21T07:37:28;98115.78;;;4.96;100.00
73151;BME280;61354;50.758;6.106;2022-11-21T07:39:54;98117.50;;;5.01;100.00
73151;BME280;61354;50.758;6.106;2022-11-21T07:42:19;98117.84;;;4.99;100.00
73151;BME280;61354;50.758;6.106;2022-11-21T07:44:44;98119.09;;;5.02;100.00
73151;BME280;61354;50.758;6.106;2022-11-21T07:47:10;98117.16;;;4.90;100.00
73151;BME280;61354;50.758;6.106;2022-11-21T07:49:35;98117.50;;;5.01;100.00
73151;BME280;61354;50.758;6.106;2022-11-21T07:52:01;98117.84;;;4.99;100.00
73151;BME280;61354;50.758;6.106;2022-11-21T07:54:26;98119.91;;;5.02;100.00
73151;BME280;61354;50.758;6.106;2022-11-21T07:56:52;98114.63;;;4.97;100.00
73151;BME280;61354;50.758;6.106;2022-11-21T07:59:17;98116.34;;;5.02;100.00
73151;BME280;61354;50.758;6.106;2022-11-21T08:01:43;98111.88;;;4.97;100.00
73151;BME280;61354;50.758;6.106;2022-11-21T08:04:09;98106.84;;;4.99;100.00
73151;BME280;61354;50.758;6.106;2022-11-21T08:06:34;98104.09;;;4.99;100.00
73151;BME280;61354;50.758;6.106;2022-11-21T08:09:00;98100.19;;;5.00;100.00
73151;BME280;61354;50.758;6.106;2022-11-21T08:11:25;98095.38;;;4.97;100.00
73151;BME280;61354;50.758;6.106;2022-11-21T08:13:50;98092.16;;;4.95;100.00
73151;BME280;61354;50.758;6.106;2022-11-21T08:16:16;98096.09;;;4.94;100.00
73151;BME280;61354;50.758;6.106;2022-11-21T08:18:41;98091.94;;;4.88;100.00
73151;BME280;61354;50.758;6.106;2022-11-21T08:21:07;98084.16;;;4.90;100.00
73151;BME280;61354;50.758;6.106;2022-11-21T08:23:32;98090.72;;;4.85;100.00
73151;BME280;61354;50.758;6.106;2022-11-21T08:25:58;98093.78;;;4.84;100.00
73151;BME280;61354;50.758;6.106;2022-11-21T08:28:23;98092.53;;;4.81;100.00
73151;BME280;61354;50.758;6.106;2022-11-21T08:30:49;98101.25;;;4.83;100.00
73151;BME280;61354;50.758;6.106;2022-11-21T08:33:14;98096.88;;;4.82;100.00
73151;BME280;61354;50.758;6.106;2022-11-21T08:35:40;98099.53;;;4.79;100.00
73151;BME280;61354;50.758;6.106;2022-11-21T08:38:07;98095.75;;;4.83;100.00
73151;BME280;61354;50.758;6.106;2022-11-21T08:40:33;98096.53;;;4.84;100.00
73151;BME280;61354;50.758;6.106;2022-11-21T08:43:05;98092.97;;;4.83;100.00
73151;BME280;61354;50.758;6.106;2022-11-21T08:45:32;98091.03;;;4.84;100.00
73151;BME280;61354;50.758;6.106;2022-11-21T08:47:58;98090.00;;;4.88;100.00
73151;BME280;61354;50.758;6.106;2022-11-21T08:50:24;98088.03;;;4.89;100.00
73151;BME280;61354;50.758;6.106;2022-11-21T08:52:51;98075.44;;;4.88;100.00
73151;BME280;61354;50.758;6.106;2022-11-21T08:55:16;98077.03;;;4.89;100.00
73151;BME280;61354;50.758;6.106;2022-11-21T08:57:42;98074.66;;;4.87;100.00
73151;BME280;61354;50.758;6.106;2022-11-21T09:00:09;98075.22;;;4.81;100.00
73151;BME280;61354;50.758;6.106;2022-11-21T09:02:38;98070.44;;;4.78;100.00
73151;BME280;61354;50.758;6.106;2022-11-21T09:05:04;98068.81;;;4.77;100.00
73151;BME280;61354;50.758;6.106;2022-11-21T09:07:29;98060.47;;;4.73;100.00
73151;BME280;61354;50.758;6.106;2022-11-21T09:09:55;98055.28;;;4.71;99.95
73151;BME280;61354;50.758;6.106;2022-11-21T09:12:20;98047.03;;;4.71;100.00
73151;BME280;61354;50.758;6.106;2022-11-21T09:14:46;98042.81;;;4.74;99.20
73151;BME280;61354;50.758;6.106;2022-11-21T09:17:30;98041.41;;;4.80;100.00
73151;BME280;61354;50.758;6.106;2022-11-21T09:20:14;98037.19;;;4.83;100.00
73151;BME280;61354;50.758;6.106;2022-11-21T09:22:39;98040.03;;;4.86;99.83
73151;BME280;61354;50.758;6.106;2022-11-21T09:25:05;98040.94;;;4.90;100.00
73151;BME280;61354;50.758;6.106;2022-11-21T09:27:31;98032.81;;;4.94;99.86
73151;BME280;61354;50.758;6.106;2022-11-21T09:29:56;98035.63;;;4.97;100.00
73151;BME280;61354;50.758;6.106;2022-11-21T09:32:22;98031.03;;;5.02;100.00
73151;BME280;61354;50.758;6.106;2022-11-21T09:34:48;98021.06;;;5.09;100.00
73151;BME280;61354;50.758;6.106;2022-11-21T09:37:13;98030.00;;;5.18;100.00
73151;BME280;61354;50.758;6.106;2022-11-21T09:39:39;98025.19;;;5.15;98.16
73151;BME280;61354;50.758;6.106;2022-11-21T09:42:46;98027.94;;;5.15;97.02
73151;BME280;61354;50.758;6.106;2022-11-21T09:47:48;98022.63;;;5.22;97.44
73151;BME280;61354;50.758;6.106;2022-11-21T09:52:47;98010.22;;;5.29;96.76
73151;BME280;61354;50.758;6.106;2022-11-21T09:55:34;98009.84;;;5.30;96.44
73151;BME280;61354;50.758;6.106;2022-11-21T09:58:05;98002.06;;;5.32;96.68
73151;BME280;61354;50.758;6.106;2022-11-21T10:00:33;98004.44;;;5.34;95.50
73151;BME280;61354;50.758;6.106;2022-11-21T10:02:59;98001.44;;;5.39;95.90
73151;BME280;61354;50.758;6.106;2022-11-21T10:05:40;98008.56;;;5.40;95.84
73151;BME280;61354;50.758;6.106;2022-11-21T10:08:20;98005.09;;;5.43;95.47
73151;BME280;61354;50.758;6.106;2022-11-21T10:10:54;98003.22;;;5.47;95.34
73151;BME280;61354;50.758;6.106;2022-11-21T10:13:35;97992.41;;;5.54;95.77
73151;BME280;61354;50.758;6.106;2022-11-21T10:16:43;97982.31;;;5.58;93.52
73151;BME280;61354;50.758;6.106;2022-11-21T10:22:24;97971.13;;;5.67;93.00
73151;BME280;61354;50.758;6.106;2022-11-21T10:25:02;97967.28;;;5.71;93.69
73151;BME280;61354;50.758;6.106;2022-11-21T10:27:35;97959.50;;;5.73;92.51
73151;BME280;61354;50.758;6.106;2022-11-21T10:30:05;97956.75;;;5.73;91.87
73151;BME280;61354;50.758;6.106;2022-11-21T10:32:43;97947.13;;;5.67;89.99
73151;BME280;61354;50.758;6.106;2022-11-21T10:35:23;97947.13;;;5.67;90.71
73151;BME280;61354;50.758;6.106;2022-11-21T10:37:53;97936.09;;;5.67;90.32
73151;BME280;61354;50.758;6.106;2022-11-21T10:40:29;97932.22;;;5.68;90.40
73151;BME280;61354;50.758;6.106;2022-11-21T10:46:08;97916.75;;;5.80;89.92
73151;BME280;61354;50.758;6.106;2022-11-21T10:48:34;97919.94;;;5.82;88.91
73151;BME280;61354;50.758;6.106;2022-11-21T10:53:37;97913.22;;;5.95;89.68
73151;BME280;61354;50.758;6.106;2022-11-21T10:56:22;97911.06;;;6.04;88.90
73151;BME280;61354;50.758;6.106;2022-11-21T10:58:56;97897.75;;;6.06;88.30
73151;BME280;61354;50.758;6.106;2022-11-21T11:06:38;97897.44;;;6.11;87.31
73151;BME280;61354;50.758;6.106;2022-11-21T11:09:04;97888.47;;;6.14;84.84
73151;BME280;61354;50.758;6.106;2022-11-21T11:11:29;97889.78;;;6.20;85.85
73151;BME280;61354;50.758;6.106;2022-11-21T11:14:04;97876.88;;;6.25;86.24
73151;BME280;61354;50.758;6.106;2022-11-21T11:16:34;97884.06;;;6.29;85.79
73151;BME280;61354;50.758;6.106;2022-11-21T11:26:59;97867.19;;;6.50;84.83
73151;BME280;61354;50.758;6.106;2022-11-21T11:29:32;97869.66;;;6.55;85.23
73151;BME280;61354;50.758;6.106;2022-11-21T11:37:19;97857.97;;;6.62;84.21
73151;BME280;61354;50.758;6.106;2022-11-21T11:42:34;97835.97;;;6.65;84.64
73151;BME280;61354;50.758;6.106;2022-11-21T11:45:57;97828.13;;;6.67;83.01
73151;BME280;61354;50.758;6.106;2022-11-21T11:48:43;97810.00;;;6.66;84.22
73151;BME280;61354;50.758;6.106;2022-11-21T11:51:21;97804.78;;;6.61;81.79
73151;BME280;61354;50.758;6.106;2022-11-21T11:53:56;97796.06;;;6.59;80.83
73151;BME280;61354;50.758;6.106;2022-11-21T11:56:32;97789.31;;;6.57;80.72
73151;BME280;61354;50.758;6.106;2022-11-21T11:59:19;97782.22;;;6.56;79.43
73151;BME280;61354;50.758;6.106;2022-11-21T12:01:54;97773.13;;;6.55;79.50
73151;BME280;61354;50.758;6.106;2022-11-21T12:04:23;97767.31;;;6.60;80.60
73151;BME280;61354;50.758;6.106;2022-11-21T12:07:18;97757.09;;;6.61;80.97
73151;BME280;61354;50.758;6.106;2022-11-21T12:12:35;97742.19;;;6.65;81.78
73151;BME280;61354;50.758;6.106;2022-11-21T12:15:25;97743.06;;;6.69;82.13
73151;BME280;61354;50.758;6.106;2022-11-21T12:23:11;97732.22;;;6.80;84.35
73151;BME280;61354;50.758;6.106;2022-11-21T12:25:41;97719.16;;;6.77;83.48
73151;BME280;61354;50.758;6.106;2022-11-21T12:28:22;97722.00;;;6.81;84.88
73151;BME280;61354;50.758;6.106;2022-11-21T12:31:08;97712.53;;;6.82;84.39
73151;BME280;61354;50.758;6.106;2022-11-21T12:33:49;97703.09;;;6.83;84.43
73151;BME280;61354;50.758;6.106;2022-11-21T12:36:42;97691.31;;;6.86;84.66
73151;BME280;61354;50.758;6.106;2022-11-21T12:45:27;97686.72;;;6.93;85.96
73151;BME280;61354;50.758;6.106;2022-11-21T12:57:08;97664.06;;;7.07;85.56
73151;BME280;61354;50.758;6.106;2022-11-21T13:04:44;97635.72;;;7.10;86.43
73151;BME280;61354;50.758;6.106;2022-11-21T13:07:11;97640.53;;;7.13;86.33
73151;BME280;61354;50.758;6.106;2022-11-21T13:09:42;97638.16;;;7.15;87.25
73151;BME280;61354;50.758;6.106;2022-11-21T13:12:19;97631.13;;;7.18;87.12
73151;BME280;61354;50.758;6.106;2022-11-21T13:15:01;97635.88;;;7.21;87.99
73151;BME280;61354;50.758;6.106;2022-11-21T13:18:14;97632.25;;;7.17;87.14
73151;BME280;61354;50.758;6.106;2022-11-21T13:20:46;97623.63;;;7.18;87.57
73151;BME280;61354;50.758;6.106;2022-11-21T13:23:38;97621.28;;;7.20;87.73
73151;BME280;61354;50.758;6.106;2022-11-21T13:29:14;97585.03;;;7.22;87.94
73151;BME280;61354;50.758;6.106;2022-11-21T13:31:41;97571.25;;;7.26;87.69
73151;BME280;61354;50.758;6.106;2022-11-21T13:34:36;97576.78;;;7.26;87.27
73151;BME280;61354;50.758;6.106;2022-11-21T13:37:03;97561.06;;;7.30;87.13
73151;BME280;61354;50.758;6.106;2022-11-21T13:39:32;97554.00;;;7.32;87.46
73151;BME280;61354;50.758;6.106;2022-11-21T13:42:05;97546.94;;;7.35;87.20
73151;BME280;61354;50.758;6.106;2022-11-21T13:44:50;97533.88;;;7.32;87.36
73151;BME280;61354;50.758;6.106;2022-11-21T13:53:15;97513.38;;;7.33;87.16
73151;BME280;61354;50.758;6.106;2022-11-21T13:59:00;97512.97;;;7.31;87.20
73151;BME280;61354;50.758;6.106;2022-11-21T14:04:38;97497.88;;;7.25;87.56
73151;BME280;61354;50.758;6.106;2022-11-21T14:07:31;97497.88;;;7.25;87.95
73151;BME280;61354;50.758;6.106;2022-11-21T14:10:00;97501.41;;;7.21;88.45
73151;BME280;61354;50.758;6.106;2022-11-21T14:17:47;97508.03;;;7.13;87.05
73151;BME280;61354;50.758;6.106;2022-11-21T14:25:25;97494.47;;;7.01;87.52
73151;BME280;61354;50.758;6.106;2022-11-21T14:27:54;97486.94;;;6.98;87.56
73151;BME280;61354;50.758;6.106;2022-11-21T14:30:31;97476.53;;;6.88;88.09
73151;BME280;61354;50.758;6.106;2022-11-21T14:33:19;97461.59;;;6.89;88.09
73151;BME280;61354;50.758;6.106;2022-11-21T14:35:47;97445.38;;;6.87;88.43
73151;BME280;61354;50.758;6.106;2022-11-21T14:38:13;97439.81;;;6.84;88.43
73151;BME280;61354;50.758;6.106;2022-11-21T14:40:39;97431.53;;;6.84;88.67
73151;BME280;61354;50.758;6.106;2022-11-21T14:43:27;97425.56;;;6.78;88.95
73151;BME280;61354;50.758;6.106;2022-11-21T14:45:53;97417.28;;;6.78;89.09
73151;BME280;61354;50.758;6.106;2022-11-21T14:48:32;97415.66;;;6.73;88.92
73151;BME280;61354;50.758;6.106;2022-11-21T14:50:59;97399.84;;;6.70;88.64
73151;BME280;61354;50.758;6.106;2022-11-21T14:53:25;97409.72;;;6.71;88.62
73151;BME280;61354;50.758;6.106;2022-11-21T14:55:52;97411.22;;;6.65;89.23